sensor_id;sensor_type;location;lat;lon;timestamp;pressure;altitude;pressure_sealevel;temperature;humidity
64354;BME280;50681;53.334;-6.536;2023-04-08T00:00:43;101525.22;;;9.14;100.00
64354;BME280;50681;53.334;-6.536;2023-04-08T00:03:09;101490.78;;;8.88;100.00
64354;BME280;50681;53.334;-6.536;2023-04-08T00:05:40;101521.81;;;9.23;100.00
64354;BME280;50681;53.334;-6.536;2023-04-08T00:08:05;101510.06;;;9.07;100.00
64354;BME280;50681;53.334;-6.536;2023-04-08T00:10:31;101516.88;;;9.15;100.00
64354;BME280;50681;53.334;-6.536;2023-04-08T00:12:56;101524.50;;;9.23;100.00
64354;BME280;50681;53.334;-6.536;2023-04-08T00:15:28;101533.84;;;9.43;100.00
64354;BME280;50681;53.334;-6.536;2023-04-08T00:17:53;101502.63;;;9.20;100.00
64354;BME280;50681;53.334;-6.536;2023-04-08T00:20:22;101517.06;;;9.36;100.00
64354;BME280;50681;53.334;-6.536;2023-04-08T00:22:48;101491.28;;;9.18;100.00
64354;BME280;50681;53.334;-6.536;2023-04-08T00:25:13;101540.59;;;9.46;100.00
64354;BME280;50681;53.334;-6.536;2023-04-08T00:27:44;101514.50;;;9.51;100.00
64354;BME280;50681;53.334;-6.536;2023-04-08T00:30:10;101530.69;;;9.51;100.00
64354;BME280;50681;53.334;-6.536;2023-04-08T00:32:39;101511.38;;;9.32;100.00
64354;BME280;50681;53.334;-6.536;2023-04-08T00:35:05;101509.81;;;9.41;100.00
64354;BME280;50681;53.334;-6.536;2023-04-08T00:37:34;101519.81;;;9.41;100.00
64354;BME280;50681;53.334;-6.536;2023-04-08T00:39:59;101548.81;;;9.61;100.00
64354;BME280;50681;53.334;-6.536;2023-04-08T00:42:29;101536.97;;;9.67;100.00
64354;BME280;50681;53.334;-6.536;2023-04-08T00:44:55;101522.31;;;9.53;100.00
64354;BME280;50681;53.334;-6.536;2023-04-08T00:47:21;101522.31;;;9.53;100.00
64354;BME280;50681;53.334;-6.536;2023-04-08T00:49:47;101535.34;;;9.66;100.00
64354;BME280;50681;53.334;-6.536;2023-04-08T00:52:12;101527.78;;;9.63;100.00
64354;BME280;50681;53.334;-6.536;2023-04-08T00:54:41;101508.06;;;9.58;100.00
64354;BME280;50681;53.334;-6.536;2023-04-08T00:57:14;101538.69;;;9.79;100.00
64354;BME280;50681;53.334;-6.536;2023-04-08T00:59:43;101536.50;;;9.76;100.00
64354;BME280;50681;53.334;-6.536;2023-04-08T01:02:20;101521.72;;;9.83;100.00
64354;BME280;50681;53.334;-6.536;2023-04-08T01:07:31;101500.69;;;9.80;100.00
64354;BME280;50681;53.334;-6.536;2023-04-08T01:12:44;101524.53;;;9.99;100.00
64354;BME280;50681;53.334;-6.536;2023-04-08T01:15:13;101538.78;;;9.94;100.00
64354;BME280;50681;53.334;-6.536;2023-04-08T01:17:39;101494.72;;;9.78;100.00
64354;BME280;50681;53.334;-6.536;2023-04-08T01:20:09;101530.97;;;9.93;100.00
64354;BME280;50681;53.334;-6.536;2023-04-08T01:25:26;101506.34;;;9.84;100.00
64354;BME280;50681;53.334;-6.536;2023-04-08T01:27:55;101487.69;;;9.72;100.00
64354;BME280;50681;53.334;-6.536;2023-04-08T01:30:26;101525.81;;;9.91;100.00
64354;BME280;50681;53.334;-6.536;2023-04-08T01:32:54;101535.81;;;9.91;100.00
64354;BME280;50681;53.334;-6.536;2023-04-08T01:35:20;101533.63;;;9.88;100.00
64354;BME280;50681;53.334;-6.536;2023-04-08T01:37:47;101527.25;;;10.04;100.00
64354;BME280;50681;53.334;-6.536;2023-04-08T01:40:14;101517.13;;;9.84;100.00
64354;BME280;50681;53.334;-6.536;2023-04-08T01:42:43;101497.63;;;9.71;100.00
64354;BME280;50681;53.334;-6.536;2023-04-08T01:45:13;101524.16;;;9.85;100.00
64354;BME280;50681;53.334;-6.536;2023-04-08T01:47:41;101490.50;;;9.55;100.00
64354;BME280;50681;53.334;-6.536;2023-04-08T01:50:09;101503.44;;;9.53;100.00
64354;BME280;50681;53.334;-6.536;2023-04-08T01:52:36;101478.34;;;9.47;100.00
64354;BME280;50681;53.334;-6.536;2023-04-08T01:55:06;101516.72;;;9.60;100.00
64354;BME280;50681;53.334;-6.536;2023-04-08T01:57:35;101510.22;;;9.55;100.00
64354;BME280;50681;53.334;-6.536;2023-04-08T02:00:05;101516.41;;;9.56;100.00
64354;BME280;50681;53.334;-6.536;2023-04-08T02:02:37;101483.69;;;9.42;100.00
64354;BME280;50681;53.334;-6.536;2023-04-08T02:05:16;101501.84;;;9.57;100.00
64354;BME280;50681;53.334;-6.536;2023-04-08T02:07:49;101526.97;;;9.63;100.00
64354;BME280;50681;53.334;-6.536;2023-04-08T02:10:14;101527.53;;;9.65;100.00
64354;BME280;50681;53.334;-6.536;2023-04-08T02:12:40;101542.13;;;9.69;100.00
64354;BME280;50681;53.334;-6.536;2023-04-08T02:15:07;101537.28;;;9.71;100.00
64354;BME280;50681;53.334;-6.536;2023-04-08T02:17:52;101513.53;;;9.68;100.00
64354;BME280;50681;53.334;-6.536;2023-04-08T02:20:30;101514.06;;;9.65;100.00
64354;BME280;50681;53.334;-6.536;2023-04-08T02:23:04;101514.28;;;9.63;100.00
64354;BME280;50681;53.334;-6.536;2023-04-08T02:25:34;101525.16;;;9.74;100.00
64354;BME280;50681;53.334;-6.536;2023-04-08T02:28:03;101517.88;;;9.69;100.00
64354;BME280;50681;53.334;-6.536;2023-04-08T02:30:33;101499.63;;;9.49;100.00
64354;BME280;50681;53.334;-6.536;2023-04-08T02:33:01;101530.22;;;9.65;100.00
64354;BME280;50681;53.334;-6.536;2023-04-08T02:35:27;101535.59;;;9.60;100.00
64354;BME280;50681;53.334;-6.536;2023-04-08T02:37:53;101541.50;;;9.56;100.00
64354;BME280;50681;53.334;-6.536;2023-04-08T02:40:29;101530.19;;;9.60;100.00
64354;BME280;50681;53.334;-6.536;2023-04-08T02:42:58;101530.16;;;9.54;100.00
64354;BME280;50681;53.334;-6.536;2023-04-08T02:45:29;101512.47;;;9.36;100.00
64354;BME280;50681;53.334;-6.536;2023-04-08T02:47:55;101532.47;;;9.40;100.00
64354;BME280;50681;53.334;-6.536;2023-04-08T02:50:20;101519.75;;;9.36;100.00
64354;BME280;50681;53.334;-6.536;2023-04-08T02:52:46;101529.53;;;9.42;100.00
64354;BME280;50681;53.334;-6.536;2023-04-08T02:55:11;101522.97;;;9.33;100.00
64354;BME280;50681;53.334;-6.536;2023-04-08T02:57:39;101530.63;;;9.46;100.00
64354;BME280;50681;53.334;-6.536;2023-04-08T03:00:05;101528.66;;;9.36;100.00
64354;BME280;50681;53.334;-6.536;2023-04-08T03:02:31;101521.06;;;9.33;100.00
64354;BME280;50681;53.334;-6.536;2023-04-08T03:04:57;101502.03;;;9.12;100.00
64354;BME280;50681;53.334;-6.536;2023-04-08T03:07:22;101508.75;;;9.10;100.00
64354;BME280;50681;53.334;-6.536;2023-04-08T03:09:47;101524.09;;;9.09;100.00
64354;BME280;50681;53.334;-6.536;2023-04-08T03:12:13;101496.72;;;8.90;100.00
64354;BME280;50681;53.334;-6.536;2023-04-08T03:14:38;101505.66;;;8.96;100.00
64354;BME280;50681;53.334;-6.536;2023-04-08T03:17:04;101507.50;;;8.90;100.00
64354;BME280;50681;53.334;-6.536;2023-04-08T03:19:30;101518.81;;;8.92;100.00
64354;BME280;50681;53.334;-6.536;2023-04-08T03:21:57;101518.28;;;8.90;100.00
64354;BME280;50681;53.334;-6.536;2023-04-08T03:24:23;101489.50;;;8.68;100.00
64354;BME280;50681;53.334;-6.536;2023-04-08T03:26:48;101485.41;;;8.66;100.00
64354;BME280;50681;53.334;-6.536;2023-04-08T03:29:14;101506.63;;;8.85;100.00
64354;BME280;50681;53.334;-6.536;2023-04-08T03:31:39;101503.91;;;8.85;100.00
64354;BME280;50681;53.334;-6.536;2023-04-08T03:34:04;101506.00;;;8.77;100.00
64354;BME280;50681;53.334;-6.536;2023-04-08T03:36:30;101499.25;;;8.75;100.00
64354;BME280;50681;53.334;-6.536;2023-04-08T03:38:56;101480.75;;;8.56;100.00
64354;BME280;50681;53.334;-6.536;2023-04-08T03:41:21;101475.38;;;8.56;100.00
64354;BME280;50681;53.334;-6.536;2023-04-08T03:43:47;101485.06;;;8.57;100.00
64354;BME280;50681;53.334;-6.536;2023-04-08T03:46:12;101475.47;;;8.44;100.00
64354;BME280;50681;53.334;-6.536;2023-04-08T03:48:38;101493.25;;;8.67;100.00
64354;BME280;50681;53.334;-6.536;2023-04-08T03:51:03;101483.19;;;8.58;100.00
64354;BME280;50681;53.334;-6.536;2023-04-08T03:53:29;101504.25;;;8.66;100.00
64354;BME280;50681;53.334;-6.536;2023-04-08T03:55:55;101506.72;;;8.67;100.00
64354;BME280;50681;53.334;-6.536;2023-04-08T03:58:21;101487.34;;;8.48;100.00
64354;BME280;50681;53.334;-6.536;2023-04-08T04:00:46;101474.75;;;8.49;100.00
64354;BME280;50681;53.334;-6.536;2023-04-08T04:03:12;101482.81;;;8.49;100.00
64354;BME280;50681;53.334;-6.536;2023-04-08T04:05:38;101489.44;;;8.63;100.00
64354;BME280;50681;53.334;-6.536;2023-04-08T04:08:04;101504.53;;;8.64;100.00
64354;BME280;50681;53.334;-6.536;2023-04-08T04:10:29;101514.53;;;8.69;100.00
64354;BME280;50681;53.334;-6.536;2023-04-08T04:12:55;101501.78;;;8.59;100.00
64354;BME280;50681;53.334;-6.536;2023-04-08T04:15:20;101481.34;;;8.41;100.00
64354;BME280;50681;53.334;-6.536;2023-04-08T04:17:51;101498.03;;;8.60;100.00
64354;BME280;50681;53.334;-6.536;2023-04-08T04:20:17;101507.72;;;8.61;100.00
64354;BME280;50681;53.334;-6.536;2023-04-08T04:22:43;101482.16;;;8.42;100.00
64354;BME280;50681;53.334;-6.536;2023-04-08T04:25:08;101495.78;;;8.52;100.00
64354;BME280;50681;53.334;-6.536;2023-04-08T04:27:34;101487.78;;;8.40;100.00
64354;BME280;50681;53.334;-6.536;2023-04-08T04:30:01;101498.38;;;8.47;100.00
64354;BME280;50681;53.334;-6.536;2023-04-08T04:32:27;101497.44;;;8.36;100.00
64354;BME280;50681;53.334;-6.536;2023-04-08T04:34:52;101495.56;;;8.36;100.00
64354;BME280;50681;53.334;-6.536;2023-04-08T04:37:18;101506.63;;;8.40;100.00
64354;BME280;50681;53.334;-6.536;2023-04-08T04:39:46;101468.84;;;8.30;100.00
64354;BME280;50681;53.334;-6.536;2023-04-08T04:42:11;101499.63;;;8.39;100.00
64354;BME280;50681;53.334;-6.536;2023-04-08T04:44:37;101493.94;;;8.35;100.00
64354;BME280;50681;53.334;-6.536;2023-04-08T04:47:02;101498.50;;;8.35;100.00
64354;BME280;50681;53.334;-6.536;2023-04-08T04:49:28;101490.13;;;8.31;100.00
64354;BME280;50681;53.334;-6.536;2023-04-08T04:51:53;101488.72;;;8.29;100.00
64354;BME280;50681;53.334;-6.536;2023-04-08T04:54:21;101479.28;;;8.26;100.00
64354;BME280;50681;53.334;-6.536;2023-04-08T04:56:47;101489.84;;;8.33;100.00
64354;BME280;50681;53.334;-6.536;2023-04-08T04:59:12;101452.81;;;8.18;100.00
64354;BME280;50681;53.334;-6.536;2023-04-08T05:01:38;101486.09;;;8.34;100.00
64354;BME280;50681;53.334;-6.536;2023-04-08T05:04:05;101498.63;;;8.23;100.00
64354;BME280;50681;53.334;-6.536;2023-04-08T05:06:31;101508.13;;;8.31;100.00
64354;BME280;50681;53.334;-6.536;2023-04-08T05:08:56;101471.25;;;8.09;100.00
64354;BME280;50681;53.334;-6.536;2023-04-08T05:11:24;101475.72;;;8.20;100.00
64354;BME280;50681;53.334;-6.536;2023-04-08T05:13:50;101493.75;;;8.20;100.00
64354;BME280;50681;53.334;-6.536;2023-04-08T05:16:15;101480.09;;;8.04;100.00
64354;BME280;50681;53.334;-6.536;2023-04-08T05:18:41;101490.34;;;8.07;100.00
64354;BME280;50681;53.334;-6.536;2023-04-08T05:21:06;101477.56;;;7.98;100.00
64354;BME280;50681;53.334;-6.536;2023-04-08T05:23:33;101498.44;;;8.07;100.00
64354;BME280;50681;53.334;-6.536;2023-04-08T05:25:59;101505.38;;;8.03;100.00
64354;BME280;50681;53.334;-6.536;2023-04-08T05:28:24;101500.97;;;7.97;100.00
64354;BME280;50681;53.334;-6.536;2023-04-08T05:30:51;101508.78;;;7.99;100.00
64354;BME280;50681;53.334;-6.536;2023-04-08T05:33:17;101518.31;;;8.06;100.00
64354;BME280;50681;53.334;-6.536;2023-04-08T05:35:43;101498.28;;;7.97;100.00
64354;BME280;50681;53.334;-6.536;2023-04-08T05:38:08;101496.47;;;8.03;100.00
64354;BME280;50681;53.334;-6.536;2023-04-08T05:40:34;101501.63;;;8.04;100.00
64354;BME280;50681;53.334;-6.536;2023-04-08T05:42:59;101515.00;;;8.21;100.00
64354;BME280;50681;53.334;-6.536;2023-04-08T05:45:26;101512.72;;;8.30;100.00
64354;BME280;50681;53.334;-6.536;2023-04-08T05:47:52;101518.59;;;8.27;100.00
64354;BME280;50681;53.334;-6.536;2023-04-08T05:50:17;101499.63;;;8.17;100.00
64354;BME280;50681;53.334;-6.536;2023-04-08T05:52:43;101514.56;;;8.30;100.00
64354;BME280;50681;53.334;-6.536;2023-04-08T05:55:10;101488.22;;;8.09;100.00
64354;BME280;50681;53.334;-6.536;2023-04-08T05:57:35;101523.28;;;8.37;100.00
64354;BME280;50681;53.334;-6.536;2023-04-08T06:00:01;101522.78;;;8.40;100.00
64354;BME280;50681;53.334;-6.536;2023-04-08T06:02:27;101514.97;;;8.38;100.00
64354;BME280;50681;53.334;-6.536;2023-04-08T06:04:52;101506.38;;;8.42;100.00
64354;BME280;50681;53.334;-6.536;2023-04-08T06:07:18;101488.84;;;8.39;100.00
64354;BME280;50681;53.334;-6.536;2023-04-08T06:09:46;101520.19;;;8.67;100.00
64354;BME280;50681;53.334;-6.536;2023-04-08T06:12:11;101523.78;;;8.78;100.00
64354;BME280;50681;53.334;-6.536;2023-04-08T06:14:36;101529.59;;;8.92;100.00
64354;BME280;50681;53.334;-6.536;2023-04-08T06:17:03;101527.56;;;9.05;100.00
64354;BME280;50681;53.334;-6.536;2023-04-08T06:19:28;101537.66;;;9.20;100.00
64354;BME280;50681;53.334;-6.536;2023-04-08T06:21:54;101515.03;;;9.21;100.00
64354;BME280;50681;53.334;-6.536;2023-04-08T06:24:26;101524.09;;;9.37;100.00
64354;BME280;50681;53.334;-6.536;2023-04-08T06:26:54;101543.88;;;9.53;100.00
64354;BME280;50681;53.334;-6.536;2023-04-08T06:29:22;101540.50;;;9.68;100.00
64354;BME280;50681;53.334;-6.536;2023-04-08T06:31:49;101545.84;;;9.63;100.00
64354;BME280;50681;53.334;-6.536;2023-04-08T06:34:15;101521.50;;;9.52;100.00
64354;BME280;50681;53.334;-6.536;2023-04-08T06:36:40;101520.44;;;9.53;100.00
64354;BME280;50681;53.334;-6.536;2023-04-08T06:39:06;101537.25;;;9.66;100.00
64354;BME280;50681;53.334;-6.536;2023-04-08T06:41:31;101538.66;;;9.74;100.00
64354;BME280;50681;53.334;-6.536;2023-04-08T06:43:57;101518.34;;;9.61;100.00
64354;BME280;50681;53.334;-6.536;2023-04-08T06:46:22;101542.72;;;9.76;100.00
64354;BME280;50681;53.334;-6.536;2023-04-08T06:48:48;101527.75;;;9.58;100.00
64354;BME280;50681;53.334;-6.536;2023-04-08T06:51:13;101551.34;;;9.73;100.00
64354;BME280;50681;53.334;-6.536;2023-04-08T06:53:39;101523.63;;;9.45;100.00
64354;BME280;50681;53.334;-6.536;2023-04-08T06:56:05;101561.31;;;9.78;100.00
64354;BME280;50681;53.334;-6.536;2023-04-08T06:58:30;101522.03;;;9.49;100.00
64354;BME280;50681;53.334;-6.536;2023-04-08T07:00:56;101564.81;;;9.73;100.00
64354;BME280;50681;53.334;-6.536;2023-04-08T07:03:22;101534.84;;;9.69;100.00
64354;BME280;50681;53.334;-6.536;2023-04-08T07:05:47;101532.25;;;9.47;100.00
64354;BME280;50681;53.334;-6.536;2023-04-08T07:08:13;101566.22;;;9.81;100.00
64354;BME280;50681;53.334;-6.536;2023-04-08T07:10:39;101559.56;;;9.94;100.00
64354;BME280;50681;53.334;-6.536;2023-04-08T07:13:04;101560.75;;;10.08;100.00
64354;BME280;50681;53.334;-6.536;2023-04-08T07:15:30;101553.13;;;10.00;100.00
64354;BME280;50681;53.334;-6.536;2023-04-08T07:17:55;101576.09;;;10.08;100.00
64354;BME280;50681;53.334;-6.536;2023-04-08T07:20:22;101541.59;;;10.15;100.00
64354;BME280;50681;53.334;-6.536;2023-04-08T07:22:48;101544.06;;;10.22;100.00
64354;BME280;50681;53.334;-6.536;2023-04-08T07:25:13;101539.78;;;10.26;100.00
64354;BME280;50681;53.334;-6.536;2023-04-08T07:27:39;101566.41;;;10.55;100.00
64354;BME280;50681;53.334;-6.536;2023-04-08T07:30:05;101554.50;;;10.61;100.00
64354;BME280;50681;53.334;-6.536;2023-04-08T07:32:32;101558.38;;;10.81;100.00
64354;BME280;50681;53.334;-6.536;2023-04-08T07:34:58;101573.00;;;10.95;100.00
64354;BME280;50681;53.334;-6.536;2023-04-08T07:37:24;101571.97;;;11.22;100.00
64354;BME280;50681;53.334;-6.536;2023-04-08T07:39:49;101572.50;;;11.19;100.00
64354;BME280;50681;53.334;-6.536;2023-04-08T07:42:15;101575.22;;;11.19;100.00
64354;BME280;50681;53.334;-6.536;2023-04-08T07:44:41;101561.16;;;11.22;100.00
64354;BME280;50681;53.334;-6.536;2023-04-08T07:47:08;101578.47;;;11.47;100.00
64354;BME280;50681;53.334;-6.536;2023-04-08T07:49:33;101588.75;;;11.66;100.00
64354;BME280;50681;53.334;-6.536;2023-04-08T07:51:59;101587.69;;;11.67;100.00
64354;BME280;50681;53.334;-6.536;2023-04-08T07:54:24;101577.94;;;11.71;100.00
64354;BME280;50681;53.334;-6.536;2023-04-08T07:56:50;101576.31;;;11.90;100.00
64354;BME280;50681;53.334;-6.536;2023-04-08T07:59:15;101588.75;;;12.17;100.00
64354;BME280;50681;53.334;-6.536;2023-04-08T08:01:41;101597.34;;;12.40;100.00
64354;BME280;50681;53.334;-6.536;2023-04-08T08:04:06;101601.53;;;12.83;100.00
64354;BME280;50681;53.334;-6.536;2023-04-08T08:06:34;101622.19;;;13.23;100.00
64354;BME280;50681;53.334;-6.536;2023-04-08T08:09:00;101622.59;;;13.41;100.00
64354;BME280;50681;53.334;-6.536;2023-04-08T08:11:25;101611.44;;;13.53;100.00
64354;BME280;50681;53.334;-6.536;2023-04-08T08:13:54;101604.88;;;13.59;100.00
64354;BME280;50681;53.334;-6.536;2023-04-08T08:16:19;101609.13;;;13.71;100.00
64354;BME280;50681;53.334;-6.536;2023-04-08T08:18:45;101600.50;;;13.63;100.00
64354;BME280;50681;53.334;-6.536;2023-04-08T08:21:13;101587.19;;;13.62;100.00
64354;BME280;50681;53.334;-6.536;2023-04-08T08:23:42;101611.56;;;14.02;100.00
64354;BME280;50681;53.334;-6.536;2023-04-08T08:26:09;101607.44;;;14.04;100.00
64354;BME280;50681;53.334;-6.536;2023-04-08T08:28:39;101588.75;;;14.03;100.00
64354;BME280;50681;53.334;-6.536;2023-04-08T08:31:05;101602.38;;;14.22;100.00
64354;BME280;50681;53.334;-6.536;2023-04-08T08:33:31;101603.63;;;14.35;100.00
64354;BME280;50681;53.334;-6.536;2023-04-08T08:35:57;101603.91;;;14.58;100.00
64354;BME280;50681;53.334;-6.536;2023-04-08T08:38:23;101609.22;;;14.68;100.00
64354;BME280;50681;53.334;-6.536;2023-04-08T08:40:59;101596.03;;;14.80;100.00
64354;BME280;50681;53.334;-6.536;2023-04-08T08:43:26;101612.34;;;14.80;100.00
64354;BME280;50681;53.334;-6.536;2023-04-08T08:45:52;101608.66;;;14.71;100.00
64354;BME280;50681;53.334;-6.536;2023-04-08T08:48:18;101586.50;;;14.59;100.00
64354;BME280;50681;53.334;-6.536;2023-04-08T08:50:45;101615.72;;;14.72;100.00
64354;BME280;50681;53.334;-6.536;2023-04-08T08:53:11;101575.78;;;14.67;100.00
64354;BME280;50681;53.334;-6.536;2023-04-08T08:55:37;101602.00;;;14.82;100.00
64354;BME280;50681;53.334;-6.536;2023-04-08T08:58:04;101594.44;;;14.79;100.00
64354;BME280;50681;53.334;-6.536;2023-04-08T09:00:37;101595.47;;;15.03;100.00
64354;BME280;50681;53.334;-6.536;2023-04-08T09:03:26;101597.75;;;15.14;100.00
64354;BME280;50681;53.334;-6.536;2023-04-08T09:05:52;101616.34;;;15.07;100.00
64354;BME280;50681;53.334;-6.536;2023-04-08T09:08:26;101600.16;;;14.97;100.00
64354;BME280;50681;53.334;-6.536;2023-04-08T09:10:53;101577.31;;;14.98;100.00
64354;BME280;50681;53.334;-6.536;2023-04-08T09:13:18;101606.50;;;15.11;100.00
64354;BME280;50681;53.334;-6.536;2023-04-08T09:16:04;101605.09;;;15.14;100.00
64354;BME280;50681;53.334;-6.536;2023-04-08T09:18:31;101599.56;;;15.19;100.00
64354;BME280;50681;53.334;-6.536;2023-04-08T09:21:01;101580.09;;;15.12;100.00
64354;BME280;50681;53.334;-6.536;2023-04-08T09:26:07;101594.72;;;15.35;100.00
64354;BME280;50681;53.334;-6.536;2023-04-08T09:28:33;101603.56;;;15.27;100.00
64354;BME280;50681;53.334;-6.536;2023-04-08T09:30:59;101591.06;;;15.26;100.00
64354;BME280;50681;53.334;-6.536;2023-04-08T09:33:30;101603.53;;;15.46;100.00
64354;BME280;50681;53.334;-6.536;2023-04-08T09:35:56;101581.56;;;15.23;100.00
64354;BME280;50681;53.334;-6.536;2023-04-08T09:38:22;101568.56;;;15.01;100.00
64354;BME280;50681;53.334;-6.536;2023-04-08T09:40:48;101585.38;;;15.41;100.00
64354;BME280;50681;53.334;-6.536;2023-04-08T09:43:17;101595.69;;;15.78;100.00
64354;BME280;50681;53.334;-6.536;2023-04-08T09:45:50;101558.75;;;15.71;100.00
64354;BME280;50681;53.334;-6.536;2023-04-08T09:48:17;101579.19;;;15.88;100.00
64354;BME280;50681;53.334;-6.536;2023-04-08T09:50:49;101582.72;;;16.02;100.00
64354;BME280;50681;53.334;-6.536;2023-04-08T09:53:25;101583.84;;;16.29;100.00
64354;BME280;50681;53.334;-6.536;2023-04-08T09:55:55;101587.47;;;16.25;100.00
64354;BME280;50681;53.334;-6.536;2023-04-08T09:58:26;101602.09;;;16.71;100.00
64354;BME280;50681;53.334;-6.536;2023-04-08T10:00:53;101587.28;;;16.63;100.00
64354;BME280;50681;53.334;-6.536;2023-04-08T10:03:28;101571.25;;;16.98;100.00
64354;BME280;50681;53.334;-6.536;2023-04-08T10:05:55;101585.91;;;16.88;100.00
64354;BME280;50681;53.334;-6.536;2023-04-08T10:08:23;101590.44;;;17.07;100.00
64354;BME280;50681;53.334;-6.536;2023-04-08T10:10:50;101586.66;;;17.17;100.00
64354;BME280;50681;53.334;-6.536;2023-04-08T10:13:15;101599.72;;;17.43;99.70
64354;BME280;50681;53.334;-6.536;2023-04-08T10:15:41;101585.50;;;17.55;95.16
64354;BME280;50681;53.334;-6.536;2023-04-08T10:23:01;101598.47;;;17.72;87.90
64354;BME280;50681;53.334;-6.536;2023-04-08T10:25:28;101596.34;;;17.69;88.08
64354;BME280;50681;53.334;-6.536;2023-04-08T10:27:54;101573.03;;;17.62;84.85
64354;BME280;50681;53.334;-6.536;2023-04-08T10:32:52;101579.00;;;17.73;83.39
64354;BME280;50681;53.334;-6.536;2023-04-08T10:35:28;101564.97;;;17.57;82.58
64354;BME280;50681;53.334;-6.536;2023-04-08T10:37:54;101571.03;;;17.54;82.50
64354;BME280;50681;53.334;-6.536;2023-04-08T10:40:20;101565.75;;;17.58;82.76
64354;BME280;50681;53.334;-6.536;2023-04-08T10:42:45;101566.59;;;17.67;82.95
64354;BME280;50681;53.334;-6.536;2023-04-08T10:45:15;101543.16;;;17.43;82.65
64354;BME280;50681;53.334;-6.536;2023-04-08T10:47:42;101551.84;;;17.45;81.72
64354;BME280;50681;53.334;-6.536;2023-04-08T10:50:14;101536.72;;;17.39;78.81
64354;BME280;50681;53.334;-6.536;2023-04-08T10:52:54;101550.97;;;17.59;75.99
64354;BME280;50681;53.334;-6.536;2023-04-08T10:55:23;101549.19;;;17.54;77.27
64354;BME280;50681;53.334;-6.536;2023-04-08T10:57:50;101568.34;;;17.63;74.07
64354;BME280;50681;53.334;-6.536;2023-04-08T11:00:31;101557.69;;;17.53;72.21
64354;BME280;50681;53.334;-6.536;2023-04-08T11:03:00;101551.19;;;17.40;72.42
64354;BME280;50681;53.334;-6.536;2023-04-08T11:05:27;101533.75;;;17.27;74.43
64354;BME280;50681;53.334;-6.536;2023-04-08T11:07:52;101550.88;;;17.41;72.83
64354;BME280;50681;53.334;-6.536;2023-04-08T11:10:18;101549.75;;;17.42;73.28
64354;BME280;50681;53.334;-6.536;2023-04-08T11:12:44;101544.97;;;17.48;73.43
64354;BME280;50681;53.334;-6.536;2023-04-08T11:15:10;101548.31;;;17.68;73.63
64354;BME280;50681;53.334;-6.536;2023-04-08T11:17:37;101541.66;;;17.60;75.08
64354;BME280;50681;53.334;-6.536;2023-04-08T11:20:10;101536.91;;;17.74;73.44
64354;BME280;50681;53.334;-6.536;2023-04-08T11:22:38;101545.34;;;17.87;73.98
64354;BME280;50681;53.334;-6.536;2023-04-08T11:25:04;101552.88;;;17.81;74.46
64354;BME280;50681;53.334;-6.536;2023-04-08T11:27:33;101537.38;;;17.68;74.48
64354;BME280;50681;53.334;-6.536;2023-04-08T11:30:00;101545.81;;;17.89;73.29
64354;BME280;50681;53.334;-6.536;2023-04-08T11:32:26;101533.47;;;17.91;74.37
64354;BME280;50681;53.334;-6.536;2023-04-08T11:34:53;101544.56;;;17.95;74.41
64354;BME280;50681;53.334;-6.536;2023-04-08T11:37:19;101537.28;;;18.13;73.95
64354;BME280;50681;53.334;-6.536;2023-04-08T11:39:48;101540.38;;;18.29;73.23
64354;BME280;50681;53.334;-6.536;2023-04-08T11:42:30;101521.38;;;18.24;71.76
64354;BME280;50681;53.334;-6.536;2023-04-08T11:44:59;101532.06;;;18.52;71.44
64354;BME280;50681;53.334;-6.536;2023-04-08T11:47:32;101548.63;;;18.73;69.52
64354;BME280;50681;53.334;-6.536;2023-04-08T11:49:57;101538.66;;;18.95;70.33
64354;BME280;50681;53.334;-6.536;2023-04-08T11:52:40;101512.44;;;19.20;72.27
64354;BME280;50681;53.334;-6.536;2023-04-08T11:55:06;101517.31;;;19.06;70.49
64354;BME280;50681;53.334;-6.536;2023-04-08T11:57:31;101498.94;;;19.15;69.48
64354;BME280;50681;53.334;-6.536;2023-04-08T11:59:57;101531.91;;;19.36;67.66
64354;BME280;50681;53.334;-6.536;2023-04-08T12:02:28;101513.16;;;19.56;67.57
64354;BME280;50681;53.334;-6.536;2023-04-08T12:04:53;101536.34;;;19.67;67.36
64354;BME280;50681;53.334;-6.536;2023-04-08T12:07:19;101519.41;;;19.74;66.58
64354;BME280;50681;53.334;-6.536;2023-04-08T12:09:44;101539.72;;;19.73;65.79
64354;BME280;50681;53.334;-6.536;2023-04-08T12:12:13;101522.31;;;19.69;66.33
64354;BME280;50681;53.334;-6.536;2023-04-08T12:14:38;101532.31;;;19.65;67.08
64354;BME280;50681;53.334;-6.536;2023-04-08T12:17:06;101531.56;;;19.56;66.77
64354;BME280;50681;53.334;-6.536;2023-04-08T12:19:31;101544.06;;;19.65;68.05
64354;BME280;50681;53.334;-6.536;2023-04-08T12:21:57;101513.47;;;19.63;66.74
64354;BME280;50681;53.334;-6.536;2023-04-08T12:24:22;101542.44;;;19.73;67.46
64354;BME280;50681;53.334;-6.536;2023-04-08T12:26:48;101528.28;;;19.62;68.87
64354;BME280;50681;53.334;-6.536;2023-04-08T12:29:14;101533.00;;;19.53;70.21
64354;BME280;50681;53.334;-6.536;2023-04-08T12:31:39;101509.69;;;19.38;70.71
64354;BME280;50681;53.334;-6.536;2023-04-08T12:34:07;101521.25;;;19.52;71.06
64354;BME280;50681;53.334;-6.536;2023-04-08T12:36:33;101551.63;;;19.77;71.73
64354;BME280;50681;53.334;-6.536;2023-04-08T12:38:58;101549.06;;;19.72;72.11
64354;BME280;50681;53.334;-6.536;2023-04-08T12:41:25;101523.69;;;19.45;71.96
64354;BME280;50681;53.334;-6.536;2023-04-08T12:43:53;101511.72;;;19.59;72.67
64354;BME280;50681;53.334;-6.536;2023-04-08T12:46:19;101530.31;;;19.83;72.48
64354;BME280;50681;53.334;-6.536;2023-04-08T12:48:48;101536.94;;;19.91;72.97
64354;BME280;50681;53.334;-6.536;2023-04-08T12:51:14;101537.09;;;19.86;73.77
64354;BME280;50681;53.334;-6.536;2023-04-08T12:53:42;101545.38;;;20.16;73.32
64354;BME280;50681;53.334;-6.536;2023-04-08T12:56:07;101546.41;;;20.02;73.25